sensor_id;sensor_type;location;lat;lon;timestamp;temperature;humidity
2867;DHT22;1441;48.886;8.728;2022-12-18T00:01:20;-5.00;98.50
2867;DHT22;1441;48.886;8.728;2022-12-18T00:03:46;-4.90;98.60
2867;DHT22;1441;48.886;8.728;2022-12-18T00:06:12;-4.90;98.40
2867;DHT22;1441;48.886;8.728;2022-12-18T00:08:39;-4.80;98.40
2867;DHT22;1441;48.886;8.728;2022-12-18T00:11:10;-4.90;98.00
2867;DHT22;1441;48.886;8.728;2022-12-18T00:13:37;-4.90;98.20
2867;DHT22;1441;48.886;8.728;2022-12-18T00:16:04;-4.90;98.20
2867;DHT22;1441;48.886;8.728;2022-12-18T00:18:30;-4.90;97.40
2867;DHT22;1441;48.886;8.728;2022-12-18T00:20:59;-5.00;97.00
2867;DHT22;1441;48.886;8.728;2022-12-18T00:23:25;-5.00;97.00
2867;DHT22;1441;48.886;8.728;2022-12-18T00:25:51;-5.10;96.10
2867;DHT22;1441;48.886;8.728;2022-12-18T00:28:17;-5.20;96.40
2867;DHT22;1441;48.886;8.728;2022-12-18T00:30:42;-5.20;96.60
2867;DHT22;1441;48.886;8.728;2022-12-18T00:33:08;-5.20;96.90
2867;DHT22;1441;48.886;8.728;2022-12-18T00:35:33;-5.10;97.30
2867;DHT22;1441;48.886;8.728;2022-12-18T00:37:59;-5.10;96.80
2867;DHT22;1441;48.886;8.728;2022-12-18T00:40:24;-5.20;96.80
2867;DHT22;1441;48.886;8.728;2022-12-18T00:42:50;-5.20;96.90
2867;DHT22;1441;48.886;8.728;2022-12-18T00:45:26;-5.30;97.20
2867;DHT22;1441;48.886;8.728;2022-12-18T00:47:53;-5.30;96.40
2867;DHT22;1441;48.886;8.728;2022-12-18T00:50:20;-5.40;96.90
2867;DHT22;1441;48.886;8.728;2022-12-18T00:52:46;-5.50;96.90
2867;DHT22;1441;48.886;8.728;2022-12-18T00:55:12;-5.60;97.50
2867;DHT22;1441;48.886;8.728;2022-12-18T00:57:38;-5.60;98.60
2867;DHT22;1441;48.886;8.728;2022-12-18T01:00:05;-5.60;97.60
2867;DHT22;1441;48.886;8.728;2022-12-18T01:02:32;-5.70;98.10
2867;DHT22;1441;48.886;8.728;2022-12-18T01:04:58;-5.50;99.10
2867;DHT22;1441;48.886;8.728;2022-12-18T01:07:24;-5.40;99.10
2867;DHT22;1441;48.886;8.728;2022-12-18T01:09:49;-5.50;98.70
2867;DHT22;1441;48.886;8.728;2022-12-18T01:12:15;-5.40;98.50
2867;DHT22;1441;48.886;8.728;2022-12-18T01:14:40;-5.40;98.40
2867;DHT22;1441;48.886;8.728;2022-12-18T01:17:06;-5.40;98.20
2867;DHT22;1441;48.886;8.728;2022-12-18T01:19:31;-5.40;97.80
2867;DHT22;1441;48.886;8.728;2022-12-18T01:21:57;-5.30;97.70
2867;DHT22;1441;48.886;8.728;2022-12-18T01:24:23;-5.40;97.00
2867;DHT22;1441;48.886;8.728;2022-12-18T01:26:48;-5.50;96.60
2867;DHT22;1441;48.886;8.728;2022-12-18T01:29:14;-5.50;96.90
2867;DHT22;1441;48.886;8.728;2022-12-18T01:31:40;-5.50;97.20
2867;DHT22;1441;48.886;8.728;2022-12-18T01:34:05;-5.60;97.80
2867;DHT22;1441;48.886;8.728;2022-12-18T01:36:33;-5.50;98.10
2867;DHT22;1441;48.886;8.728;2022-12-18T01:39:00;-5.50;98.20
2867;DHT22;1441;48.886;8.728;2022-12-18T01:41:28;-5.40;97.80
2867;DHT22;1441;48.886;8.728;2022-12-18T01:49:57;-5.40;97.50
2867;DHT22;1441;48.886;8.728;2022-12-18T01:52:26;-5.40;97.50
2867;DHT22;1441;48.886;8.728;2022-12-18T01:54:54;-5.30;97.50
2867;DHT22;1441;48.886;8.728;2022-12-18T01:57:20;-5.40;97.20
2867;DHT22;1441;48.886;8.728;2022-12-18T01:59:49;-5.30;97.10
2867;DHT22;1441;48.886;8.728;2022-12-18T02:02:16;-5.30;97.10
2867;DHT22;1441;48.886;8.728;2022-12-18T02:04:43;-5.30;96.60
2867;DHT22;1441;48.886;8.728;2022-12-18T02:07:30;-5.50;96.20
2867;DHT22;1441;48.886;8.728;2022-12-18T02:15:16;-5.70;96.20
2867;DHT22;1441;48.886;8.728;2022-12-18T02:17:52;-5.60;96.20
2867;DHT22;1441;48.886;8.728;2022-12-18T02:20:28;-5.60;96.30
2867;DHT22;1441;48.886;8.728;2022-12-18T02:28:42;-5.40;96.60
2867;DHT22;1441;48.886;8.728;2022-12-18T02:31:13;-5.40;96.50
2867;DHT22;1441;48.886;8.728;2022-12-18T02:33:42;-5.40;96.40
2867;DHT22;1441;48.886;8.728;2022-12-18T02:36:10;-5.50;96.30
2867;DHT22;1441;48.886;8.728;2022-12-18T02:38:36;-5.60;96.50
2867;DHT22;1441;48.886;8.728;2022-12-18T02:41:03;-5.70;96.80
2867;DHT22;1441;48.886;8.728;2022-12-18T02:43:29;-5.70;97.00
2867;DHT22;1441;48.886;8.728;2022-12-18T02:45:59;-5.70;97.00
2867;DHT22;1441;48.886;8.728;2022-12-18T02:48:31;-5.70;97.10
2867;DHT22;1441;48.886;8.728;2022-12-18T02:51:10;-5.70;96.90
2867;DHT22;1441;48.886;8.728;2022-12-18T02:53:44;-5.60;96.80
2867;DHT22;1441;48.886;8.728;2022-12-18T02:56:21;-5.60;96.80
2867;DHT22;1441;48.886;8.728;2022-12-18T02:59:02;-5.70;96.60
2867;DHT22;1441;48.886;8.728;2022-12-18T03:05:08;-5.70;96.80
2867;DHT22;1441;48.886;8.728;2022-12-18T03:07:51;-5.60;96.20
2867;DHT22;1441;48.886;8.728;2022-12-18T03:10:24;-5.70;96.20
2867;DHT22;1441;48.886;8.728;2022-12-18T03:13:06;-5.70;96.50
2867;DHT22;1441;48.886;8.728;2022-12-18T03:15:37;-5.70;96.50
2867;DHT22;1441;48.886;8.728;2022-12-18T03:18:10;-5.70;96.10
2867;DHT22;1441;48.886;8.728;2022-12-18T03:20:39;-5.80;96.10
2867;DHT22;1441;48.886;8.728;2022-12-18T03:23:16;-5.80;96.20
2867;DHT22;1441;48.886;8.728;2022-12-18T03:25:44;-5.90;96.20
2867;DHT22;1441;48.886;8.728;2022-12-18T03:28:14;-5.90;96.50
2867;DHT22;1441;48.886;8.728;2022-12-18T03:30:41;-5.90;96.60
2867;DHT22;1441;48.886;8.728;2022-12-18T03:33:12;-5.90;96.70
2867;DHT22;1441;48.886;8.728;2022-12-18T03:35:41;-5.90;96.20
2867;DHT22;1441;48.886;8.728;2022-12-18T03:38:08;-6.10;96.10
2867;DHT22;1441;48.886;8.728;2022-12-18T03:45:53;-6.20;96.20
2867;DHT22;1441;48.886;8.728;2022-12-18T03:48:26;-6.30;96.60
2867;DHT22;1441;48.886;8.728;2022-12-18T03:54:01;-6.40;97.30
2867;DHT22;1441;48.886;8.728;2022-12-18T03:56:30;-6.50;97.50
2867;DHT22;1441;48.886;8.728;2022-12-18T03:58:57;-6.50;97.60
2867;DHT22;1441;48.886;8.728;2022-12-18T04:01:30;-6.50;97.90
2867;DHT22;1441;48.886;8.728;2022-12-18T04:03:59;-6.40;97.50
2867;DHT22;1441;48.886;8.728;2022-12-18T04:06:26;-6.40;96.90
2867;DHT22;1441;48.886;8.728;2022-12-18T04:08:53;-6.50;96.80
2867;DHT22;1441;48.886;8.728;2022-12-18T04:11:19;-6.50;96.60
2867;DHT22;1441;48.886;8.728;2022-12-18T04:13:44;-6.50;96.80
2867;DHT22;1441;48.886;8.728;2022-12-18T04:16:10;-6.50;96.50
2867;DHT22;1441;48.886;8.728;2022-12-18T04:18:36;-6.60;96.70
2867;DHT22;1441;48.886;8.728;2022-12-18T04:21:02;-6.70;97.40
2867;DHT22;1441;48.886;8.728;2022-12-18T04:23:27;-6.60;97.30
2867;DHT22;1441;48.886;8.728;2022-12-18T04:25:53;-6.60;96.90
2867;DHT22;1441;48.886;8.728;2022-12-18T04:28:19;-6.70;96.80
2867;DHT22;1441;48.886;8.728;2022-12-18T04:30:45;-6.80;96.80
2867;DHT22;1441;48.886;8.728;2022-12-18T04:33:12;-6.80;97.40
2867;DHT22;1441;48.886;8.728;2022-12-18T04:35:39;-6.80;97.60
2867;DHT22;1441;48.886;8.728;2022-12-18T04:38:06;-6.90;97.70
2867;DHT22;1441;48.886;8.728;2022-12-18T04:40:33;-7.00;97.40
2867;DHT22;1441;48.886;8.728;2022-12-18T04:42:59;-7.00;97.00
2867;DHT22;1441;48.886;8.728;2022-12-18T04:45:24;-7.00;97.20
2867;DHT22;1441;48.886;8.728;2022-12-18T04:47:50;-7.00;97.70
2867;DHT22;1441;48.886;8.728;2022-12-18T04:50:16;-6.90;97.30
2867;DHT22;1441;48.886;8.728;2022-12-18T04:52:41;-7.00;97.30
2867;DHT22;1441;48.886;8.728;2022-12-18T04:55:07;-7.00;97.20
2867;DHT22;1441;48.886;8.728;2022-12-18T04:57:32;-7.00;98.00
2867;DHT22;1441;48.886;8.728;2022-12-18T04:59:58;-7.00;98.00
2867;DHT22;1441;48.886;8.728;2022-12-18T05:02:24;-7.00;97.80
2867;DHT22;1441;48.886;8.728;2022-12-18T05:04:49;-7.00;98.10
2867;DHT22;1441;48.886;8.728;2022-12-18T05:07:15;-6.90;98.40
2867;DHT22;1441;48.886;8.728;2022-12-18T05:09:40;-7.00;97.80
2867;DHT22;1441;48.886;8.728;2022-12-18T05:12:06;-7.10;97.70
2867;DHT22;1441;48.886;8.728;2022-12-18T05:14:31;-7.20;97.70
2867;DHT22;1441;48.886;8.728;2022-12-18T05:16:57;-7.20;97.90
2867;DHT22;1441;48.886;8.728;2022-12-18T05:19:23;-7.30;99.90
2867;DHT22;1441;48.886;8.728;2022-12-18T05:21:48;-7.20;99.60
2867;DHT22;1441;48.886;8.728;2022-12-18T05:24:14;-7.20;99.40
2867;DHT22;1441;48.886;8.728;2022-12-18T05:26:39;-7.00;98.60
2867;DHT22;1441;48.886;8.728;2022-12-18T05:29:05;-6.90;98.40
2867;DHT22;1441;48.886;8.728;2022-12-18T05:31:30;-6.90;98.40
2867;DHT22;1441;48.886;8.728;2022-12-18T05:33:57;-7.00;98.00
2867;DHT22;1441;48.886;8.728;2022-12-18T05:36:22;-7.10;98.50
2867;DHT22;1441;48.886;8.728;2022-12-18T05:38:48;-7.10;98.90
2867;DHT22;1441;48.886;8.728;2022-12-18T05:41:13;-7.00;98.50
2867;DHT22;1441;48.886;8.728;2022-12-18T05:43:40;-7.00;98.00
2867;DHT22;1441;48.886;8.728;2022-12-18T05:46:07;-7.00;97.90
2867;DHT22;1441;48.886;8.728;2022-12-18T05:48:33;-7.00;98.10
2867;DHT22;1441;48.886;8.728;2022-12-18T05:51:07;-7.00;98.00
2867;DHT22;1441;48.886;8.728;2022-12-18T05:53:34;-7.10;98.20
2867;DHT22;1441;48.886;8.728;2022-12-18T05:56:02;-7.00;98.20
2867;DHT22;1441;48.886;8.728;2022-12-18T05:58:28;-6.90;98.20
2867;DHT22;1441;48.886;8.728;2022-12-18T06:00:54;-6.90;97.80
2867;DHT22;1441;48.886;8.728;2022-12-18T06:03:19;-7.00;98.10
2867;DHT22;1441;48.886;8.728;2022-12-18T06:05:45;-7.00;98.50
2867;DHT22;1441;48.886;8.728;2022-12-18T06:08:12;-7.00;98.50
2867;DHT22;1441;48.886;8.728;2022-12-18T06:10:39;-7.00;98.40
2867;DHT22;1441;48.886;8.728;2022-12-18T06:13:05;-6.90;98.60
2867;DHT22;1441;48.886;8.728;2022-12-18T06:15:31;-6.90;98.60
2867;DHT22;1441;48.886;8.728;2022-12-18T06:17:57;-6.90;98.60
2867;DHT22;1441;48.886;8.728;2022-12-18T06:20:23;-6.80;98.70
2867;DHT22;1441;48.886;8.728;2022-12-18T06:22:48;-6.80;98.90
2867;DHT22;1441;48.886;8.728;2022-12-18T06:25:14;-6.80;98.80
2867;DHT22;1441;48.886;8.728;2022-12-18T06:27:40;-6.80;99.00
2867;DHT22;1441;48.886;8.728;2022-12-18T06:30:06;-6.80;99.50
2867;DHT22;1441;48.886;8.728;2022-12-18T06:32:32;-6.70;99.90
2867;DHT22;1441;48.886;8.728;2022-12-18T06:34:57;-6.60;99.90
2867;DHT22;1441;48.886;8.728;2022-12-18T06:37:23;-6.60;99.90
2867;DHT22;1441;48.886;8.728;2022-12-18T06:39:51;-6.50;99.90
2867;DHT22;1441;48.886;8.728;2022-12-18T06:42:17;-6.60;99.90
2867;DHT22;1441;48.886;8.728;2022-12-18T06:44:43;-6.70;99.90
2867;DHT22;1441;48.886;8.728;2022-12-18T06:47:08;-6.70;99.90
2867;DHT22;1441;48.886;8.728;2022-12-18T06:49:34;-6.60;99.90
2867;DHT22;1441;48.886;8.728;2022-12-18T06:52:00;-6.60;99.90
2867;DHT22;1441;48.886;8.728;2022-12-18T06:54:25;-6.60;99.90
2867;DHT22;1441;48.886;8.728;2022-12-18T06:56:51;-6.50;99.90
2867;DHT22;1441;48.886;8.728;2022-12-18T06:59:16;-6.50;99.90
2867;DHT22;1441;48.886;8.728;2022-12-18T07:01:42;-6.50;99.90
2867;DHT22;1441;48.886;8.728;2022-12-18T07:04:07;-6.40;99.90
2867;DHT22;1441;48.886;8.728;2022-12-18T07:06:33;-6.30;99.90
2867;DHT22;1441;48.886;8.728;2022-12-18T07:08:58;-6.30;99.90
2867;DHT22;1441;48.886;8.728;2022-12-18T07:11:24;-6.20;99.90
2867;DHT22;1441;48.886;8.728;2022-12-18T07:13:50;-6.20;99.90
2867;DHT22;1441;48.886;8.728;2022-12-18T07:16:17;-6.20;99.90
2867;DHT22;1441;48.886;8.728;2022-12-18T07:18:43;-6.10;99.90
2867;DHT22;1441;48.886;8.728;2022-12-18T07:21:13;-5.90;99.90
2867;DHT22;1441;48.886;8.728;2022-12-18T07:23:39;-5.80;99.50
2867;DHT22;1441;48.886;8.728;2022-12-18T07:26:06;-5.70;99.20
2867;DHT22;1441;48.886;8.728;2022-12-18T07:28:33;-5.80;98.90
2867;DHT22;1441;48.886;8.728;2022-12-18T07:31:03;-5.80;98.80
2867;DHT22;1441;48.886;8.728;2022-12-18T07:33:29;-5.70;98.70
2867;DHT22;1441;48.886;8.728;2022-12-18T07:35:54;-5.70;98.40
2867;DHT22;1441;48.886;8.728;2022-12-18T07:38:20;-5.60;98.10
2867;DHT22;1441;48.886;8.728;2022-12-18T07:40:46;-5.60;98.10
2867;DHT22;1441;48.886;8.728;2022-12-18T07:43:11;-5.60;98.10
2867;DHT22;1441;48.886;8.728;2022-12-18T07:45:37;-5.60;98.10
2867;DHT22;1441;48.886;8.728;2022-12-18T07:48:03;-5.50;97.60
2867;DHT22;1441;48.886;8.728;2022-12-18T07:50:28;-5.60;97.20
2867;DHT22;1441;48.886;8.728;2022-12-18T07:52:54;-5.60;97.50
2867;DHT22;1441;48.886;8.728;2022-12-18T07:55:19;-5.70;97.70
2867;DHT22;1441;48.886;8.728;2022-12-18T07:57:45;-5.70;97.40
2867;DHT22;1441;48.886;8.728;2022-12-18T08:00:11;-5.60;97.00
2867;DHT22;1441;48.886;8.728;2022-12-18T08:02:37;-5.70;97.10
2867;DHT22;1441;48.886;8.728;2022-12-18T08:05:03;-5.70;97.00
2867;DHT22;1441;48.886;8.728;2022-12-18T08:07:29;-5.70;97.20
2867;DHT22;1441;48.886;8.728;2022-12-18T08:09:54;-5.80;97.80
2867;DHT22;1441;48.886;8.728;2022-12-18T08:12:20;-5.70;98.70
2867;DHT22;1441;48.886;8.728;2022-12-18T08:14:45;-5.80;98.90
2867;DHT22;1441;48.886;8.728;2022-12-18T08:17:11;-5.90;99.60
2867;DHT22;1441;48.886;8.728;2022-12-18T08:19:36;-5.90;99.90
2867;DHT22;1441;48.886;8.728;2022-12-18T08:22:02;-5.80;99.90
2867;DHT22;1441;48.886;8.728;2022-12-18T08:24:28;-5.80;99.80
2867;DHT22;1441;48.886;8.728;2022-12-18T08:26:53;-5.90;99.60
2867;DHT22;1441;48.886;8.728;2022-12-18T08:29:19;-6.10;99.30
2867;DHT22;1441;48.886;8.728;2022-12-18T08:31:45;-6.00;99.10
2867;DHT22;1441;48.886;8.728;2022-12-18T08:34:10;-6.10;98.50
2867;DHT22;1441;48.886;8.728;2022-12-18T08:36:36;-6.10;98.40
2867;DHT22;1441;48.886;8.728;2022-12-18T08:39:02;-6.10;98.90
2867;DHT22;1441;48.886;8.728;2022-12-18T08:41:28;-6.20;99.10
2867;DHT22;1441;48.886;8.728;2022-12-18T08:43:53;-6.20;99.00
2867;DHT22;1441;48.886;8.728;2022-12-18T08:46:39;-6.20;98.80
2867;DHT22;1441;48.886;8.728;2022-12-18T08:49:06;-6.30;99.30
2867;DHT22;1441;48.886;8.728;2022-12-18T08:51:33;-6.30;99.30
2867;DHT22;1441;48.886;8.728;2022-12-18T08:53:59;-6.40;99.60
2867;DHT22;1441;48.886;8.728;2022-12-18T08:56:24;-6.30;99.60
2867;DHT22;1441;48.886;8.728;2022-12-18T08:58:54;-6.30;99.90
2867;DHT22;1441;48.886;8.728;2022-12-18T09:01:20;-6.20;99.80
2867;DHT22;1441;48.886;8.728;2022-12-18T09:03:45;-5.90;99.60
2867;DHT22;1441;48.886;8.728;2022-12-18T09:06:14;-5.90;98.30
2867;DHT22;1441;48.886;8.728;2022-12-18T09:08:41;-6.00;98.70
2867;DHT22;1441;48.886;8.728;2022-12-18T09:11:18;-6.00;99.20
2867;DHT22;1441;48.886;8.728;2022-12-18T09:13:44;-5.90;99.20
2867;DHT22;1441;48.886;8.728;2022-12-18T09:16:10;-5.80;99.30
2867;DHT22;1441;48.886;8.728;2022-12-18T09:18:35;-5.60;98.80
2867;DHT22;1441;48.886;8.728;2022-12-18T09:21:11;-5.50;98.50
2867;DHT22;1441;48.886;8.728;2022-12-18T09:23:37;-5.50;98.60
2867;DHT22;1441;48.886;8.728;2022-12-18T09:26:02;-5.50;98.30
2867;DHT22;1441;48.886;8.728;2022-12-18T09:28:28;-5.50;98.90
2867;DHT22;1441;48.886;8.728;2022-12-18T09:30:55;-4.60;99.90
2867;DHT22;1441;48.886;8.728;2022-12-18T09:33:21;-4.10;99.90
2867;DHT22;1441;48.886;8.728;2022-12-18T09:35:47;-3.80;99.00
2867;DHT22;1441;48.886;8.728;2022-12-18T09:38:18;-3.50;98.10
2867;DHT22;1441;48.886;8.728;2022-12-18T09:40:49;-3.40;97.30
2867;DHT22;1441;48.886;8.728;2022-12-18T09:43:29;-3.30;97.30
2867;DHT22;1441;48.886;8.728;2022-12-18T09:45:59;-3.30;97.40
2867;DHT22;1441;48.886;8.728;2022-12-18T09:48:29;-3.10;96.80
2867;DHT22;1441;48.886;8.728;2022-12-18T09:51:00;-3.00;96.40
2867;DHT22;1441;48.886;8.728;2022-12-18T09:53:31;-3.00;96.30
2867;DHT22;1441;48.886;8.728;2022-12-18T09:56:00;-3.00;96.20
2867;DHT22;1441;48.886;8.728;2022-12-18T09:58:32;-3.20;96.70
2867;DHT22;1441;48.886;8.728;2022-12-18T10:00:58;-3.30;96.90
2867;DHT22;1441;48.886;8.728;2022-12-18T10:03:24;-3.50;97.70
2867;DHT22;1441;48.886;8.728;2022-12-18T10:06:07;-3.60;97.80
2867;DHT22;1441;48.886;8.728;2022-12-18T10:08:42;-3.70;97.20
2867;DHT22;1441;48.886;8.728;2022-12-18T10:19:59;-4.10;96.60
2867;DHT22;1441;48.886;8.728;2022-12-18T10:25:13;-4.00;96.90
2867;DHT22;1441;48.886;8.728;2022-12-18T10:27:40;-4.00;96.90
2867;DHT22;1441;48.886;8.728;2022-12-18T10:30:14;-4.00;97.00
2867;DHT22;1441;48.886;8.728;2022-12-18T10:32:41;-3.90;97.30
2867;DHT22;1441;48.886;8.728;2022-12-18T10:35:22;-3.90;97.30
2867;DHT22;1441;48.886;8.728;2022-12-18T10:40:26;-3.80;96.70
2867;DHT22;1441;48.886;8.728;2022-12-18T10:43:25;-3.70;97.40
2867;DHT22;1441;48.886;8.728;2022-12-18T10:48:26;-3.70;97.50
2867;DHT22;1441;48.886;8.728;2022-12-18T10:50:52;-3.70;97.30
2867;DHT22;1441;48.886;8.728;2022-12-18T10:53:22;-3.60;97.20
2867;DHT22;1441;48.886;8.728;2022-12-18T10:55:48;-3.50;96.40
2867;DHT22;1441;48.886;8.728;2022-12-18T10:58:33;-3.50;96.30
2867;DHT22;1441;48.886;8.728;2022-12-18T11:03:40;-3.30;95.30
2867;DHT22;1441;48.886;8.728;2022-12-18T11:06:12;-3.10;95.30
2867;DHT22;1441;48.886;8.728;2022-12-18T11:08:40;-3.00;95.40
2867;DHT22;1441;48.886;8.728;2022-12-18T11:11:26;-2.70;94.30
2867;DHT22;1441;48.886;8.728;2022-12-18T11:14:04;-2.80;94.70
2867;DHT22;1441;48.886;8.728;2022-12-18T11:16:36;-2.50;94.70
2867;DHT22;1441;48.886;8.728;2022-12-18T11:19:32;-2.50;93.70
2867;DHT22;1441;48.886;8.728;2022-12-18T11:21:59;-2.30;93.90
2867;DHT22;1441;48.886;8.728;2022-12-18T11:24:33;-2.00;92.00
2867;DHT22;1441;48.886;8.728;2022-12-18T11:27:02;-2.20;92.90
2867;DHT22;1441;48.886;8.728;2022-12-18T11:29:37;-1.90;94.50
2867;DHT22;1441;48.886;8.728;2022-12-18T11:32:23;-1.60;94.10
2867;DHT22;1441;48.886;8.728;2022-12-18T11:35:04;-1.60;93.90
2867;DHT22;1441;48.886;8.728;2022-12-18T11:37:34;-1.50;94.20
2867;DHT22;1441;48.886;8.728;2022-12-18T11:40:15;-1.60;94.00
2867;DHT22;1441;48.886;8.728;2022-12-18T11:45:29;-1.80;96.30
2867;DHT22;1441;48.886;8.728;2022-12-18T11:50:56;-1.40;94.80
2867;DHT22;1441;48.886;8.728;2022-12-18T11:53:22;-1.40;94.80
2867;DHT22;1441;48.886;8.728;2022-12-18T11:56:19;-1.70;95.60
2867;DHT22;1441;48.886;8.728;2022-12-18T11:59:07;-1.40;95.70
2867;DHT22;1441;48.886;8.728;2022-12-18T12:01:52;-1.40;95.20
2867;DHT22;1441;48.886;8.728;2022-12-18T12:04:47;-1.60;95.60
2867;DHT22;1441;48.886;8.728;2022-12-18T12:07:38;-1.30;95.60
2867;DHT22;1441;48.886;8.728;2022-12-18T12:30:13;-1.20;94.40
2867;DHT22;1441;48.886;8.728;2022-12-18T12:32:29;-1.20;95.10
2867;DHT22;1441;48.886;8.728;2022-12-18T12:35:09;-1.20;95.50
2867;DHT22;1441;48.886;8.728;2022-12-18T12:38:14;-1.30;95.80
2867;DHT22;1441;48.886;8.728;2022-12-18T12:41:01;-1.20;96.00
2867;DHT22;1441;48.886;8.728;2022-12-18T12:43:47;-1.00;93.70
2867;DHT22;1441;48.886;8.728;2022-12-18T12:46:17;-1.30;95.40
2867;DHT22;1441;48.886;8.728;2022-12-18T12:48:58;-1.30;95.70
2867;DHT22;1441;48.886;8.728;2022-12-18T12:51:35;-1.00;94.90
2867;DHT22;1441;48.886;8.728;2022-12-18T12:54:04;-0.90;94.80
2867;DHT22;1441;48.886;8.728;2022-12-18T12:56:44;-0.90;94.80
2867;DHT22;1441;48.886;8.728;2022-12-18T12:59:22;-1.10;95.90
2867;DHT22;1441;48.886;8.728;2022-12-18T13:04:57;-1.20;96.20
2867;DHT22;1441;48.886;8.728;2022-12-18T13:07:35;-1.10;95.50
2867;DHT22;1441;48.886;8.728;2022-12-18T13:12:56;-0.40;93.60
2867;DHT22;1441;48.886;8.728;2022-12-18T13:18:10;-0.30;92.70
2867;DHT22;1441;48.886;8.728;2022-12-18T13:28:16;-0.50;94.20
2867;DHT22;1441;48.886;8.728;2022-12-18T13:30:50;-0.60;94.50
2867;DHT22;1441;48.886;8.728;2022-12-18T13:38:33;-0.60;95.20
2867;DHT22;1441;48.886;8.728;2022-12-18T13:41:01;-0.50;95.30
2867;DHT22;1441;48.886;8.728;2022-12-18T13:43:38;-0.50;94.80
2867;DHT22;1441;48.886;8.728;2022-12-18T13:46:06;-0.40;94.70
2867;DHT22;1441;48.886;8.728;2022-12-18T13:48:56;-0.60;94.60
2867;DHT22;1441;48.886;8.728;2022-12-18T13:51:23;-0.50;94.80
2867;DHT22;1441;48.886;8.728;2022-12-18T13:53:56;-0.40;94.70
2867;DHT22;1441;48.886;8.728;2022-12-18T13:56:29;-0.50;94.60
2867;DHT22;1441;48.886;8.728;2022-12-18T13:59:17;-0.60;95.00
2867;DHT22;1441;48.886;8.728;2022-12-18T14:01:56;-0.50;95.00
2867;DHT22;1441;48.886;8.728;2022-12-18T14:04:28;-0.60;95.20
2867;DHT22;1441;48.886;8.728;2022-12-18T14:10:11;-0.60;95.40
2867;DHT22;1441;48.886;8.728;2022-12-18T14:12:38;-0.70;95.50
2867;DHT22;1441;48.886;8.728;2022-12-18T14:15:36;-0.70;95.80
2867;DHT22;1441;48.886;8.728;2022-12-18T14:18:29;-0.70;95.90
2867;DHT22;1441;48.886;8.728;2022-12-18T14:20:59;-0.70;95.80
2867;DHT22;1441;48.886;8.728;2022-12-18T14:23:34;-0.60;95.70
2867;DHT22;1441;48.886;8.728;2022-12-18T14:26:21;-0.60;95.80
2867;DHT22;1441;48.886;8.728;2022-12-18T14:28:47;-0.70;95.70
2867;DHT22;1441;48.886;8.728;2022-12-18T14:31:21;-0.70;96.10
2867;DHT22;1441;48.886;8.728;2022-12-18T14:33:47;-0.80;96.40
2867;DHT22;1441;48.886;8.728;2022-12-18T14:36:19;-0.80;96.50
2867;DHT22;1441;48.886;8.728;2022-12-18T14:38:55;-0.70;96.70
2867;DHT22;1441;48.886;8.728;2022-12-18T14:41:21;-0.70;96.20
2867;DHT22;1441;48.886;8.728;2022-12-18T14:43:49;-0.70;96.10
2867;DHT22;1441;48.886;8.728;2022-12-18T14:46:33;-0.70;96.20
2867;DHT22;1441;48.886;8.728;2022-12-18T14:49:28;-0.80;96.30
2867;DHT22;1441;48.886;8.728;2022-12-18T14:51:59;-0.90;96.80
2867;DHT22;1441;48.886;8.728;2022-12-18T14:54:27;-0.90;96.90
2867;DHT22;1441;48.886;8.728;2022-12-18T14:57:21;-1.00;97.10
2867;DHT22;1441;48.886;8.728;2022-12-18T14:59:47;-0.90;96.90
2867;DHT22;1441;48.886;8.728;2022-12-18T15:02:25;-0.90;97.00
2867;DHT22;1441;48.886;8.728;2022-12-18T15:05:28;-0.90;97.10
2867;DHT22;1441;48.886;8.728;2022-12-18T15:07:56;-0.90;97.30
2867;DHT22;1441;48.886;8.728;2022-12-18T15:10:27;-0.90;97.10
2867;DHT22;1441;48.886;8.728;2022-12-18T15:23:20;-1.30;98.50
2867;DHT22;1441;48.886;8.728;2022-12-18T15:25:49;-1.40;98.90
2867;DHT22;1441;48.886;8.728;2022-12-18T15:31:17;-1.60;99.90
2867;DHT22;1441;48.886;8.728;2022-12-18T15:34:00;-1.60;99.90
2867;DHT22;1441;48.886;8.728;2022-12-18T15:36:28;-1.60;99.90
2867;DHT22;1441;48.886;8.728;2022-12-18T15:39:01;-1.70;99.90
2867;DHT22;1441;48.886;8.728;2022-12-18T15:41:27;-1.70;99.90
2867;DHT22;1441;48.886;8.728;2022-12-18T15:43:53;-1.60;99.90
2867;DHT22;1441;48.886;8.728;2022-12-18T15:46:23;-1.50;99.90
2867;DHT22;1441;48.886;8.728;2022-12-18T15:48:54;-1.50;99.90
2867;DHT22;1441;48.886;8.728;2022-12-18T15:51:26;-1.50;99.90
2867;DHT22;1441;48.886;8.728;2022-12-18T15:53:56;-1.50;99.90
2867;DHT22;1441;48.886;8.728;2022-12-18T15:56:22;-1.50;99.90
2867;DHT22;1441;48.886;8.728;2022-12-18T15:59:15;-1.60;99.90
2867;DHT22;1441;48.886;8.728;2022-12-18T16:01:42;-1.50;99.90
2867;DHT22;1441;48.886;8.728;2022-12-18T16:04:12;-1.50;99.90
2867;DHT22;1441;48.886;8.728;2022-12-18T16:06:38;-1.60;99.90
2867;DHT22;1441;48.886;8.728;2022-12-18T16:09:04;-1.50;99.90
2867;DHT22;1441;48.886;8.728;2022-12-18T16:11:31;-1.30;99.90
2867;DHT22;1441;48.886;8.728;2022-12-18T16:14:12;-1.20;99.70
2867;DHT22;1441;48.886;8.728;2022-12-18T16:16:40;-1.20;99.30
2867;DHT22;1441;48.886;8.728;2022-12-18T16:19:07;-1.30;99.80
2867;DHT22;1441;48.886;8.728;2022-12-18T16:21:32;-1.20;99.90
2867;DHT22;1441;48.886;8.728;2022-12-18T16:23:58;-1.20;99.90
2867;DHT22;1441;48.886;8.728;2022-12-18T16:26:23;-1.20;99.90
2867;DHT22;1441;48.886;8.728;2022-12-18T16:28:49;-1.20;99.90
2867;DHT22;1441;48.886;8.728;2022-12-18T16:31:14;-1.20;99.90
2867;DHT22;1441;48.886;8.728;2022-12-18T16:33:40;-1.20;99.90
2867;DHT22;1441;48.886;8.728;2022-12-18T16:36:06;-1.20;99.90
2867;DHT22;1441;48.886;8.728;2022-12-18T16:38:33;-1.30;99.90
2867;DHT22;1441;48.886;8.728;2022-12-18T16:40:58;-1.20;99.90
2867;DHT22;1441;48.886;8.728;2022-12-18T16:43:42;-1.20;99.90
2867;DHT22;1441;48.886;8.728;2022-12-18T16:46:08;-1.00;99.90
2867;DHT22;1441;48.886;8.728;2022-12-18T16:48:34;-1.10;99.90
2867;DHT22;1441;48.886;8.728;2022-12-18T16:51:01;-0.90;99.90
2867;DHT22;1441;48.886;8.728;2022-12-18T16:53:27;-0.90;99.70
2867;DHT22;1441;48.886;8.728;2022-12-18T16:55:55;-0.90;99.90
2867;DHT22;1441;48.886;8.728;2022-12-18T16:58:21;-0.80;99.50
2867;DHT22;1441;48.886;8.728;2022-12-18T17:00:47;-0.70;98.90
2867;DHT22;1441;48.886;8.728;2022-12-18T17:03:13;-0.80;99.40
2867;DHT22;1441;48.886;8.728;2022-12-18T17:05:38;-0.80;99.00
2867;DHT22;1441;48.886;8.728;2022-12-18T17:08:04;-0.80;99.10
2867;DHT22;1441;48.886;8.728;2022-12-18T17:10:29;-0.70;99.10
2867;DHT22;1441;48.886;8.728;2022-12-18T17:12:55;-0.70;98.80
2867;DHT22;1441;48.886;8.728;2022-12-18T17:15:20;-0.90;99.00
2867;DHT22;1441;48.886;8.728;2022-12-18T17:17:46;-1.10;99.90
2867;DHT22;1441;48.886;8.728;2022-12-18T17:20:12;-1.00;99.90
2867;DHT22;1441;48.886;8.728;2022-12-18T17:22:37;-0.90;99.90
2867;DHT22;1441;48.886;8.728;2022-12-18T17:25:03;-0.90;99.60
2867;DHT22;1441;48.886;8.728;2022-12-18T17:27:29;-1.10;99.90
2867;DHT22;1441;48.886;8.728;2022-12-18T17:29:54;-1.20;99.90
2867;DHT22;1441;48.886;8.728;2022-12-18T17:32:20;-1.00;99.90
2867;DHT22;1441;48.886;8.728;2022-12-18T17:34:45;-0.90;99.90
2867;DHT22;1441;48.886;8.728;2022-12-18T17:37:11;-0.70;99.40
2867;DHT22;1441;48.886;8.728;2022-12-18T17:39:37;-0.70;98.30
2867;DHT22;1441;48.886;8.728;2022-12-18T17:42:03;-1.10;99.70
2867;DHT22;1441;48.886;8.728;2022-12-18T17:44:28;-1.40;99.90
2867;DHT22;1441;48.886;8.728;2022-12-18T17:46:54;-1.20;99.90
2867;DHT22;1441;48.886;8.728;2022-12-18T17:49:20;-1.10;99.90
2867;DHT22;1441;48.886;8.728;2022-12-18T17:51:46;-1.40;99.90
2867;DHT22;1441;48.886;8.728;2022-12-18T17:54:11;-1.50;99.90
2867;DHT22;1441;48.886;8.728;2022-12-18T17:56:37;-1.50;99.90
2867;DHT22;1441;48.886;8.728;2022-12-18T17:59:03;-1.50;99.90
2867;DHT22;1441;48.886;8.728;2022-12-18T18:01:29;-1.60;99.90
2867;DHT22;1441;48.886;8.728;2022-12-18T18:03:54;-1.60;99.90
2867;DHT22;1441;48.886;8.728;2022-12-18T18:06:21;-1.40;99.90
2867;DHT22;1441;48.886;8.728;2022-12-18T18:08:47;-1.10;99.90